This is the latest recevied weather packets stored in our database for station/object BMCB-24. If no packets are shown the sender has not sent any weather packets the latest 10 day(s).
| Time | Temp. | Humidity | Pressure | Rain* | Wind** | Luminosity | Snow |
|---|---|---|---|---|---|---|---|
| 1777581064 | 11.67° C | 31% | 1025.3 hPa | 0 mm | - | 0 W/m² | - |
| 1777576264 | 12.78° C | 30% | 1024.6 hPa | 0 mm | - | 0 W/m² | - |
| 1777567859 | 16.11° C | 24% | 1023.6 hPa | 0 mm | - | 250 W/m² | - |
| 1777566065 | 16.67° C | 23% | 1023.6 hPa | 0 mm | - | 332 W/m² | - |
| 1777565463 | 16.67° C | 23% | 1023.6 hPa | 0 mm | - | 362 W/m² | - |
| 1777553458 | 16.67° C | 23% | 1024.2 hPa | 0 mm | - | 746 W/m² | - |
| 1777552856 | 16.67° C | 24% | 1024.1 hPa | 0 mm | - | 752 W/m² | - |
| 1777549856 | 15.56° C | 27% | 1024.6 hPa | 0 mm | - | 772 W/m² | - |
| 1777548656 | 15° C | 29% | 1024.7 hPa | 0 mm | - | 770 W/m² | - |
| 1777546858 | 14.44° C | 31% | 1025.2 hPa | 0 mm | - | 758 W/m² | - |
| 1777543857 | 12.78° C | 34% | 1025.7 hPa | 0 mm | - | 704 W/m² | - |
| 1777537853 | 11.11° C | 38% | 1026.1 hPa | 0 mm | - | 542 W/m² | - |
| 1777536656 | 10° C | 39% | 1026 hPa | 0 mm | - | 496 W/m² | - |
| 1777515653 | 7.22° C | 46% | 1026.1 hPa | 0 mm | - | 0 W/m² | - |
| 1777510855 | 8.33° C | 42% | 1025.5 hPa | 0 mm | - | 0 W/m² | - |
| 1777507853 | 9.44° C | 42% | 1025.2 hPa | 0 mm | - | 0 W/m² | - |
| 1777504261 | 10° C | 44% | 1025.1 hPa | 0 mm | - | 0 W/m² | - |
| 1777501861 | 10° C | 44% | 1024.9 hPa | 0 mm | - | 0 W/m² | - |
| 1777498268 | 11.11° C | 44% | 1024.6 hPa | 0 mm | - | 0 W/m² | - |
| 1777496467 | 11.67° C | 42% | 1024.2 hPa | 0 mm | - | 0 W/m² | - |
| 1777495866 | 11.67° C | 42% | 1024.1 hPa | 0 mm | - | 0 W/m² | - |
| 1777488064 | 15° C | 29% | 1022.2 hPa | 0 mm | - | 8 W/m² | - |
| 1777487464 | 15° C | 29% | 1022.1 hPa | 0 mm | - | 14 W/m² | - |
| 1777480866 | 17.22° C | 27% | 1021.4 hPa | 0 mm | - | 270 W/m² | - |
| 1777476657 | 17.78° C | 26% | 1021.1 hPa | 0 mm | - | 456 W/m² | - |
* Rain latest hour (hover to see other rain measurements)
** Current wind speed in m/s (hover to see current wind gust speed)